Time;durP1;ratioP1;P1;durP2;ratioP2;P2;SDS_P1;SDS_P2;PMS_P1;PMS_P2;Temp;Humidity;BMP_temperature;BMP_pressure;BME280_temperature;BME280_humidity;BME280_pressure;Samples;Min_cycle;Max_cycle;Signal;HPM_P1;HPM_P2
2021/07/24 00:02:23;;;;;;;10.03;7.22;;;18.50;99.90;;;;;;1997475;72;21054;-83
2021/07/24 00:04:49;;;;;;;12.03;7.65;;;18.60;99.90;;;;;;1997256;70;21042;-83
2021/07/24 00:07:15;;;;;;;13.70;6.95;;;18.50;99.90;;;;;;1997418;72;21066;-82
2021/07/24 00:09:41;;;;;;;9.10;7.10;;;18.50;99.90;;;;;;1997381;72;21027;-83
2021/07/24 00:12:07;;;;;;;11.83;7.28;;;18.40;99.90;;;;;;1997482;72;21070;-83
2021/07/24 00:14:33;;;;;;;9.95;7.03;;;18.40;99.90;;;;;;1997338;71;21150;-82
2021/07/24 00:17:00;;;;;;;11.40;7.12;;;18.40;99.90;;;;;;1997677;72;21466;-82
2021/07/24 00:19:26;;;;;;;15.00;7.90;;;18.30;99.90;;;;;;1997807;70;21433;-83
2021/07/24 00:21:52;;;;;;;12.35;7.40;;;18.30;99.90;;;;;;1998060;72;21486;-82
2021/07/24 00:24:18;;;;;;;9.23;7.03;;;18.30;99.90;;;;;;1997616;72;21449;-83
2021/07/24 00:26:46;;;;;;;14.93;7.25;;;18.30;99.90;;;;;;1997347;70;21587;-83
2021/07/24 00:29:12;;;;;;;13.45;7.03;;;18.30;99.90;;;;;;1997367;72;21127;-83
2021/07/24 00:31:38;;;;;;;9.13;7.00;;;18.30;99.90;;;;;;1997318;70;21050;-82
2021/07/24 00:34:04;;;;;;;14.40;7.15;;;18.30;99.90;;;;;;1997349;72;21470;-82
2021/07/24 00:36:30;;;;;;;9.38;7.40;;;18.30;99.90;;;;;;1992718;71;21454;-83
2021/07/24 00:38:56;;;;;;;15.35;8.10;;;18.30;99.90;;;;;;1997366;72;21450;-83
2021/07/24 00:41:23;;;;;;;13.35;7.87;;;18.20;99.90;;;;;;1997306;71;21054;-82
2021/07/24 00:43:49;;;;;;;7.80;6.60;;;18.10;99.90;;;;;;1997327;72;21111;-82
2021/07/24 00:46:15;;;;;;;10.58;7.60;;;18.10;99.90;;;;;;1997318;72;21031;-83
2021/07/24 00:48:41;;;;;;;11.75;7.17;;;18.00;99.90;;;;;;1996701;71;21050;-83
2021/07/24 00:51:07;;;;;;;8.45;6.70;;;18.00;99.90;;;;;;1989522;72;21046;-83
2021/07/24 00:53:37;;;;;;;10.60;7.60;;;18.00;99.90;;;;;;1988301;70;21067;-82
2021/07/24 00:56:01;;;;;;;9.70;7.33;;;18.00;99.90;;;;;;1991336;72;21388;-83
2021/07/24 00:58:27;;;;;;;12.05;7.08;;;17.90;99.90;;;;;;1988299;70;21559;-82
2021/07/24 01:00:53;;;;;;;13.03;7.00;;;17.90;99.90;;;;;;1997250;71;21880;-83
2021/07/24 01:03:19;;;;;;;14.47;7.53;;;17.90;99.90;;;;;;1904742;75;21472;-83
2021/07/24 01:05:45;;;;;;;11.53;6.90;;;17.90;99.90;;;;;;1992660;71;21470;-83
2021/07/24 01:08:12;;;;;;;14.70;7.50;;;17.90;99.90;;;;;;1997385;70;21486;-83
2021/07/24 01:10:38;;;;;;;9.53;6.90;;;17.90;99.90;;;;;;1997303;72;21483;-83
2021/07/24 01:13:04;;;;;;;11.63;7.62;;;17.90;99.90;;;;;;1997312;72;21594;-83
2021/07/24 01:15:31;;;;;;;8.90;7.10;;;17.80;99.90;;;;;;1997323;72;21456;-83
2021/07/24 01:17:57;;;;;;;15.18;7.37;;;17.70;99.90;;;;;;1997486;70;21120;-83
2021/07/24 01:20:23;;;;;;;10.63;7.28;;;17.70;99.90;;;;;;1997699;70;21120;-83
2021/07/24 01:22:49;;;;;;;11.90;8.43;;;17.70;99.90;;;;;;1997735;72;21070;-83
2021/07/24 01:25:15;;;;;;;11.25;7.33;;;17.60;99.90;;;;;;1999857;70;21149;-83
2021/07/24 01:27:41;;;;;;;16.07;7.85;;;17.60;99.90;;;;;;2000522;70;21113;-82
2021/07/24 01:30:07;;;;;;;14.68;7.55;;;17.60;99.90;;;;;;1998736;70;21038;-83
2021/07/24 01:32:34;;;;;;;10.10;7.47;;;17.60;99.90;;;;;;1997240;72;21050;-83
2021/07/24 01:35:00;;;;;;;12.33;7.53;;;17.60;99.90;;;;;;1997390;72;21030;-84
2021/07/24 01:37:26;;;;;;;11.10;7.55;;;17.50;99.90;;;;;;1997238;72;21131;-83
2021/07/24 01:39:52;;;;;;;13.25;7.47;;;17.60;99.90;;;;;;1997369;70;21016;-83
2021/07/24 01:42:18;;;;;;;10.95;7.60;;;17.50;99.90;;;;;;1997221;72;21062;-83
2021/07/24 01:44:44;;;;;;;20.05;7.92;;;17.40;99.90;;;;;;1997433;72;21186;-83
2021/07/24 01:47:10;;;;;;;14.53;8.25;;;17.40;99.90;;;;;;1997362;72;20987;-83
2021/07/24 01:53:03;;;;;;;13.20;7.83;;;17.40;99.90;;;;;;1997368;72;21096;-83
2021/07/24 01:54:51;;;;;;;14.10;8.08;;;17.30;99.90;;;;;;1964600;71;21081;-83
2021/07/24 01:57:18;;;;;;;10.08;7.25;;;17.40;99.90;;;;;;1997326;71;21124;-82
2021/07/24 01:59:44;;;;;;;10.43;6.70;;;17.40;99.90;;;;;;1997338;70;21339;-82
2021/07/24 02:02:10;;;;;;;10.65;7.17;;;17.40;99.90;;;;;;1997233;71;21012;-83
2021/07/24 02:04:36;;;;;;;10.53;7.58;;;17.40;99.90;;;;;;1997406;72;21119;-83
2021/07/24 02:07:02;;;;;;;10.95;7.22;;;17.40;99.90;;;;;;1997343;72;21131;-83
2021/07/24 02:09:29;;;;;;;10.95;8.23;;;17.40;99.90;;;;;;1997323;72;21015;-83
2021/07/24 02:11:55;;;;;;;9.88;7.37;;;17.50;99.90;;;;;;1997346;71;21119;-83
2021/07/24 02:14:21;;;;;;;14.70;7.47;;;17.50;99.90;;;;;;1997316;70;21058;-83
2021/07/24 02:16:47;;;;;;;9.30;7.20;;;17.50;99.90;;;;;;1997312;72;21132;-82
2021/07/24 02:19:13;;;;;;;13.38;7.72;;;17.50;99.90;;;;;;1997276;72;21112;-83
2021/07/24 02:21:39;;;;;;;13.60;7.90;;;17.60;99.90;;;;;;1997380;72;21128;-82
2021/07/24 02:24:06;;;;;;;10.85;7.58;;;17.60;99.90;;;;;;1997317;72;21058;-83
2021/07/24 02:26:32;;;;;;;12.05;7.72;;;17.60;99.90;;;;;;1997285;72;21054;-83
2021/07/24 02:28:58;;;;;;;13.10;7.83;;;17.60;99.90;;;;;;1997343;72;21128;-82
2021/07/24 02:31:24;;;;;;;18.32;8.25;;;17.60;99.90;;;;;;1997296;72;21446;-82
2021/07/24 02:33:50;;;;;;;10.10;7.42;;;17.60;99.90;;;;;;1997414;72;21368;-83
2021/07/24 02:36:16;;;;;;;12.53;7.05;;;17.60;99.90;;;;;;1997351;72;21429;-82
2021/07/24 02:38:42;;;;;;;12.58;7.85;;;17.60;99.90;;;;;;1997394;72;21540;-83
2021/07/24 02:41:08;;;;;;;15.45;7.78;;;17.60;99.90;;;;;;1997144;72;21447;-83
2021/07/24 02:43:35;;;;;;;12.88;7.35;;;17.60;99.90;;;;;;1997382;72;21517;-82
2021/07/24 02:46:01;;;;;;;15.20;7.62;;;17.60;99.90;;;;;;1996725;71;21558;-83
2021/07/24 02:48:27;;;;;;;14.23;7.97;;;17.60;99.90;;;;;;1997256;72;21503;-83
2021/07/24 02:50:53;;;;;;;13.40;8.50;;;17.70;99.90;;;;;;1997322;72;21490;-83
2021/07/24 02:53:19;;;;;;;17.70;7.65;;;17.70;99.90;;;;;;1992516;72;21487;-83
2021/07/24 02:55:45;;;;;;;11.48;7.55;;;17.70;99.90;;;;;;1997162;72;21455;-83
2021/07/24 02:58:11;;;;;;;13.88;7.87;;;17.70;99.90;;;;;;1988196;71;21023;-83
2021/07/24 03:00:37;;;;;;;13.85;8.28;;;17.70;99.90;;;;;;1997210;71;21127;-83
2021/07/24 03:03:04;;;;;;;13.08;7.65;;;17.80;99.90;;;;;;1982180;72;21093;-83
2021/07/24 03:05:30;;;;;;;10.60;7.67;;;17.80;99.90;;;;;;1997051;71;21135;-82
2021/07/24 03:07:56;;;;;;;10.90;8.35;;;17.70;99.90;;;;;;1998795;72;21027;-81
2021/07/24 03:10:22;;;;;;;15.40;8.10;;;17.70;99.90;;;;;;1997783;71;21058;-83
2021/07/24 03:12:48;;;;;;;14.60;7.92;;;17.70;99.90;;;;;;1995588;70;21046;-83
2021/07/24 03:15:14;;;;;;;17.73;8.85;;;17.80;99.90;;;;;;1941153;74;21068;-83
2021/07/24 03:17:40;;;;;;;12.25;7.87;;;17.80;99.90;;;;;;1944343;72;21052;-83
2021/07/24 03:20:06;;;;;;;15.43;8.98;;;17.70;99.90;;;;;;1944473;74;21128;-82
2021/07/24 03:22:33;;;;;;;12.95;9.30;;;17.70;99.90;;;;;;1944322;74;21086;-83
2021/07/24 03:25:00;;;;;;;13.13;9.05;;;17.70;99.90;;;;;;1944535;74;21054;-82
2021/07/24 03:27:26;;;;;;;13.88;9.33;;;17.70;99.90;;;;;;1945832;72;21612;-83
2021/07/24 03:29:53;;;;;;;15.43;9.73;;;17.70;99.90;;;;;;1944755;73;21070;-83
2021/07/24 03:32:19;;;;;;;16.52;10.05;;;17.70;99.90;;;;;;1945419;73;21080;-83
2021/07/24 03:34:45;;;;;;;11.45;9.93;;;17.60;99.90;;;;;;1997506;70;21174;-83
2021/07/24 03:37:11;;;;;;;17.65;11.35;;;17.60;99.90;;;;;;1997605;72;21058;-83
2021/07/24 03:39:37;;;;;;;11.60;9.88;;;17.60;99.90;;;;;;1997571;72;21175;-83
2021/07/24 03:42:03;;;;;;;14.50;10.35;;;17.60;99.90;;;;;;1997514;72;21054;-83
2021/07/24 03:44:29;;;;;;;17.05;10.08;;;17.70;99.90;;;;;;1997568;72;21054;-83
2021/07/24 03:46:55;;;;;;;25.92;11.22;;;17.70;99.90;;;;;;1997569;72;21062;-83
2021/07/24 03:49:22;;;;;;;17.35;9.83;;;17.80;99.90;;;;;;1997562;72;21057;-83
2021/07/24 03:51:48;;;;;;;21.30;9.58;;;17.80;99.90;;;;;;1997575;72;21123;-82
2021/07/24 03:54:14;;;;;;;10.88;8.78;;;17.80;99.90;;;;;;1997575;72;21058;-83
2021/07/24 03:56:40;;;;;;;15.13;9.35;;;17.90;99.90;;;;;;1997582;70;21031;-83
2021/07/24 03:59:06;;;;;;;18.82;9.78;;;17.90;99.90;;;;;;1997556;72;21058;-83
2021/07/24 04:01:32;;;;;;;14.70;10.30;;;17.80;99.90;;;;;;1997521;70;21563;-82
2021/07/24 04:03:58;;;;;;;15.85;10.13;;;17.90;99.90;;;;;;1997361;72;21054;-83
2021/07/24 04:06:25;;;;;;;15.18;10.25;;;17.90;99.90;;;;;;1997365;72;21159;-83
2021/07/24 04:08:51;;;;;;;12.40;9.95;;;17.90;99.90;;;;;;1997454;71;21104;-82
2021/07/24 04:11:17;;;;;;;12.73;10.53;;;17.90;99.90;;;;;;1997378;72;21128;-82
2021/07/24 04:13:43;;;;;;;16.00;10.85;;;17.70;99.90;;;;;;1997384;72;21066;-82
2021/07/24 04:16:09;;;;;;;16.27;10.82;;;17.70;99.90;;;;;;1997443;72;21027;-82
2021/07/24 04:18:35;;;;;;;20.45;10.53;;;17.90;99.90;;;;;;1997440;72;21174;-82
2021/07/24 04:21:01;;;;;;;14.25;10.82;;;17.90;99.90;;;;;;1997332;72;21058;-83
2021/07/24 04:23:28;;;;;;;15.53;10.00;;;18.00;99.90;;;;;;1997435;72;21063;-82
2021/07/24 04:25:54;;;;;;;21.30;10.93;;;18.00;99.90;;;;;;1997343;72;21054;-83
2021/07/24 04:28:20;;;;;;;14.03;9.75;;;18.00;99.90;;;;;;1997356;70;21054;-83
2021/07/24 04:30:46;;;;;;;14.90;9.45;;;18.00;99.90;;;;;;1997427;72;21069;-82
2021/07/24 04:33:12;;;;;;;10.85;8.55;;;18.00;99.90;;;;;;1997370;70;21058;-82
2021/07/24 04:35:38;;;;;;;12.47;8.70;;;18.00;99.90;;;;;;1997362;72;21054;-82
2021/07/24 04:38:04;;;;;;;12.63;8.38;;;18.10;99.90;;;;;;1997368;72;21066;-82
2021/07/24 04:40:30;;;;;;;13.15;8.35;;;18.10;99.90;;;;;;1997425;72;21027;-83
2021/07/24 04:42:57;;;;;;;15.50;8.90;;;18.20;99.90;;;;;;1997280;72;21070;-82
2021/07/24 04:45:23;;;;;;;11.25;8.83;;;18.30;99.90;;;;;;1997436;72;21140;-82
2021/07/24 04:47:49;;;;;;;12.98;8.68;;;18.30;99.90;;;;;;1997353;72;21008;-82
2021/07/24 04:50:15;;;;;;;14.78;8.48;;;18.30;99.90;;;;;;1997470;72;21070;-82
2021/07/24 04:52:41;;;;;;;14.28;8.90;;;18.40;99.90;;;;;;1997285;70;21473;-83
2021/07/24 04:55:07;;;;;;;16.35;9.20;;;18.50;99.90;;;;;;1997599;72;21482;-82
2021/07/24 04:57:33;;;;;;;12.37;8.83;;;18.60;99.90;;;;;;1997600;70;21410;-82
2021/07/24 04:59:59;;;;;;;23.50;9.55;;;18.60;99.90;;;;;;1997427;72;21544;-82
2021/07/24 05:02:25;;;;;;;12.43;8.95;;;18.60;99.90;;;;;;1997306;72;21501;-82
2021/07/24 05:04:52;;;;;;;13.98;8.90;;;18.70;99.90;;;;;;1997223;72;21427;-82
2021/07/24 05:07:18;;;;;;;12.05;8.68;;;18.80;99.90;;;;;;1997360;72;21065;-82
2021/07/24 05:09:44;;;;;;;14.33;8.98;;;18.90;99.90;;;;;;1997553;72;21054;-82
2021/07/24 05:12:11;;;;;;;14.30;8.68;;;18.90;99.90;;;;;;1997350;72;21140;-83
2021/07/24 05:14:37;;;;;;;14.80;8.85;;;18.70;99.90;;;;;;1997342;72;21066;-83
2021/07/24 05:17:03;;;;;;;12.20;8.48;;;18.50;99.90;;;;;;1997355;72;21062;-82
2021/07/24 05:19:29;;;;;;;16.20;9.58;;;18.50;99.90;;;;;;1997315;72;21062;-83
2021/07/24 05:21:55;;;;;;;13.10;8.93;;;18.60;99.90;;;;;;1997304;72;21163;-82
2021/07/24 05:24:21;;;;;;;14.00;9.20;;;18.60;99.90;;;;;;1997209;72;21051;-82
2021/07/24 05:26:47;;;;;;;12.20;8.73;;;18.70;99.90;;;;;;1997390;72;21494;-82
2021/07/24 05:29:14;;;;;;;16.40;9.55;;;18.90;99.90;;;;;;1992605;71;21458;-82
2021/07/24 05:31:41;;;;;;;18.15;9.28;;;18.90;99.90;;;;;;1997510;72;21058;-81
2021/07/24 05:34:07;;;;;;;17.92;9.93;;;19.10;99.90;;;;;;1997528;72;21023;-79
2021/07/24 05:36:33;;;;;;;15.15;8.38;;;19.20;99.90;;;;;;1997502;72;21054;-83
2021/07/24 05:38:59;;;;;;;12.55;8.75;;;19.30;99.90;;;;;;1997536;72;21054;-82
2021/07/24 05:41:25;;;;;;;19.62;9.98;;;19.60;99.90;;;;;;1996992;71;21093;-80
2021/07/24 05:43:51;;;;;;;14.13;8.98;;;19.50;99.90;;;;;;1997219;72;21050;-78
2021/07/24 05:46:17;;;;;;;13.40;9.65;;;19.60;99.90;;;;;;1993341;71;21066;-80
2021/07/24 05:48:44;;;;;;;16.52;8.78;;;19.70;99.90;;;;;;1997225;72;21128;-80
2021/07/24 05:51:10;;;;;;;15.88;9.48;;;19.90;99.90;;;;;;1984360;71;21062;-80
2021/07/24 05:53:36;;;;;;;21.50;8.78;;;19.90;99.90;;;;;;1993186;71;21130;-79
2021/07/24 05:56:02;;;;;;;14.65;9.13;;;19.90;99.90;;;;;;1986664;72;21111;-81
2021/07/24 05:58:29;;;;;;;19.95;9.35;;;20.10;99.90;;;;;;1997841;72;21032;-79
2021/07/24 06:00:56;;;;;;;20.37;8.55;;;20.50;99.90;;;;;;1999188;70;21120;-79
2021/07/24 06:03:22;;;;;;;13.45;8.73;;;20.40;99.90;;;;;;2000912;70;21123;-79
2021/07/24 06:05:48;;;;;;;11.53;7.90;;;20.40;99.90;;;;;;2000204;70;21033;-79
2021/07/24 06:08:14;;;;;;;15.58;8.50;;;20.30;99.90;;;;;;1997523;72;21027;-78
2021/07/24 06:10:40;;;;;;;16.67;8.53;;;20.40;99.90;;;;;;1997516;72;21057;-77
2021/07/24 06:13:06;;;;;;;16.75;8.33;;;20.40;99.90;;;;;;1997425;72;21257;-77
2021/07/24 06:15:32;;;;;;;14.75;8.33;;;20.60;99.90;;;;;;1997424;70;21058;-79
2021/07/24 06:17:58;;;;;;;14.20;8.15;;;20.60;99.90;;;;;;1997540;70;21062;-79
2021/07/24 06:20:25;;;;;;;13.95;8.90;;;20.50;99.90;;;;;;1997438;72;21062;-80
2021/07/24 06:22:51;;;;;;;14.00;8.75;;;20.30;99.90;;;;;;1997427;72;21063;-81
2021/07/24 06:25:17;;;;;;;16.62;8.33;;;20.40;99.90;;;;;;1997362;72;21056;-84
2021/07/24 06:27:43;;;;;;;12.70;8.70;;;20.50;99.90;;;;;;1997394;71;21054;-84
2021/07/24 06:30:09;;;;;;;12.37;9.08;;;20.50;99.90;;;;;;1997443;72;21061;-82
2021/07/24 06:32:35;;;;;;;11.53;8.73;;;20.40;99.90;;;;;;1997214;72;21031;-80
2021/07/24 06:35:01;;;;;;;15.00;8.83;;;20.40;99.90;;;;;;1997502;71;21034;-80
2021/07/24 06:37:27;;;;;;;18.45;9.68;;;20.30;99.90;;;;;;1997173;72;21135;-81
2021/07/24 06:39:54;;;;;;;18.87;8.38;;;20.30;99.90;;;;;;1997422;70;21067;-80
2021/07/24 06:42:20;;;;;;;14.10;8.60;;;20.50;99.90;;;;;;1997139;72;21039;-79
2021/07/24 06:44:46;;;;;;;12.78;8.38;;;20.60;99.90;;;;;;1997464;72;21183;-80
2021/07/24 06:47:13;;;;;;;11.30;7.92;;;21.00;99.90;;;;;;1997214;70;21132;-78
2021/07/24 06:49:39;;;;;;;18.02;9.20;;;21.40;99.90;;;;;;1997536;72;21058;-79
2021/07/24 06:52:05;;;;;;;12.55;8.35;;;21.50;99.90;;;;;;1997201;72;21127;-78
2021/07/24 06:54:31;;;;;;;14.10;8.20;;;21.80;99.90;;;;;;1997400;72;21061;-80
2021/07/24 06:56:57;;;;;;;14.18;8.55;;;21.90;99.90;;;;;;1997192;71;21062;-80
2021/07/24 06:59:23;;;;;;;11.53;8.55;;;21.80;99.90;;;;;;1997349;72;21035;-82
2021/07/24 07:01:49;;;;;;;12.58;9.75;;;21.80;99.90;;;;;;1997378;72;21058;-81
2021/07/24 07:04:15;;;;;;;14.98;8.60;;;21.90;99.90;;;;;;1997382;71;21074;-79
2021/07/24 07:06:45;;;;;;;12.55;8.83;;;22.00;99.90;;;;;;1997284;72;21023;-80
2021/07/24 07:09:11;;;;;;;13.78;8.15;;;21.80;99.90;;;;;;1997351;72;21062;-80
2021/07/24 07:11:37;;;;;;;14.93;8.85;;;21.80;99.90;;;;;;1997412;72;21066;-80
2021/07/24 07:14:04;;;;;;;18.23;8.45;;;21.90;99.90;;;;;;1997148;72;21128;-79
2021/07/24 07:16:30;;;;;;;13.80;8.53;;;21.90;99.90;;;;;;1997411;72;21051;-78
2021/07/24 07:18:56;;;;;;;11.28;8.18;;;21.90;99.90;;;;;;1997185;71;21109;-78
2021/07/24 07:21:23;;;;;;;15.25;8.10;;;21.70;99.90;;;;;;1997361;72;21062;-77
2021/07/24 07:23:49;;;;;;;11.55;8.30;;;21.60;99.90;;;;;;1993283;72;21028;-80
2021/07/24 07:26:15;;;;;;;16.40;8.60;;;21.50;99.90;;;;;;1944558;74;21128;-79
2021/07/24 07:28:41;;;;;;;11.68;8.55;;;21.60;99.90;;;;;;1944479;74;21169;-79
2021/07/24 07:31:07;;;;;;;13.50;8.90;;;21.50;99.90;;;;;;1944454;73;21028;-78
2021/07/24 07:33:33;;;;;;;17.52;8.58;;;21.50;99.90;;;;;;1944429;74;21055;-80
2021/07/24 07:35:59;;;;;;;16.05;8.70;;;21.30;99.90;;;;;;1944445;74;21079;-80
2021/07/24 07:38:25;;;;;;;12.07;8.33;;;21.10;99.90;;;;;;1947935;73;21057;-79
2021/07/24 07:40:52;;;;;;;18.65;9.03;;;21.30;99.90;;;;;;1944885;74;21022;-79
2021/07/24 07:43:18;;;;;;;11.93;9.05;;;21.40;99.90;;;;;;1944514;74;21059;-79
2021/07/24 07:45:44;;;;;;;19.92;8.13;;;21.50;99.90;;;;;;1944513;74;21132;-79
2021/07/24 07:48:10;;;;;;;14.05;7.90;;;21.90;99.90;;;;;;1944496;74;21040;-78
2021/07/24 07:50:36;;;;;;;11.45;8.23;;;22.00;99.90;;;;;;1946504;72;21097;-79
2021/07/24 07:53:02;;;;;;;14.05;8.23;;;22.10;99.90;;;;;;1945637;74;21047;-79
2021/07/24 07:55:28;;;;;;;14.55;8.20;;;22.20;99.90;;;;;;1945583;73;21067;-78
2021/07/24 07:57:54;;;;;;;15.10;7.90;;;22.50;99.90;;;;;;1944395;72;21240;-79
2021/07/24 08:00:21;;;;;;;12.30;7.90;;;22.50;99.90;;;;;;1944491;74;21071;-78
2021/07/24 08:02:47;;;;;;;11.10;8.48;;;22.60;99.90;;;;;;1944555;74;21110;-79
2021/07/24 08:05:13;;;;;;;16.23;7.67;;;22.60;99.90;;;;;;1944482;72;21039;-79
2021/07/24 08:07:39;;;;;;;10.85;7.22;;;22.50;99.90;;;;;;1944251;74;21107;-78
2021/07/24 08:10:05;;;;;;;12.82;7.92;;;22.50;99.90;;;;;;1944462;74;21141;-79
2021/07/24 08:12:31;;;;;;;11.65;7.62;;;22.50;99.90;;;;;;1944239;74;21091;-78
2021/07/24 08:14:57;;;;;;;13.40;7.65;;;22.30;99.90;;;;;;1944477;74;21075;-78
2021/07/24 08:17:23;;;;;;;14.05;7.78;;;22.10;99.90;;;;;;1944397;74;21100;-78
2021/07/24 08:19:50;;;;;;;9.15;7.85;;;22.00;99.90;;;;;;1944568;74;21082;-79
2021/07/24 08:22:16;;;;;;;9.20;7.60;;;22.00;99.90;;;;;;1944374;74;21150;-79
2021/07/24 08:24:42;;;;;;;11.48;7.70;;;22.00;99.90;;;;;;1944555;74;21035;-78
2021/07/24 08:27:08;;;;;;;10.30;7.80;;;22.10;99.90;;;;;;1944600;74;21074;-78
2021/07/24 08:29:34;;;;;;;18.55;7.75;;;22.00;99.90;;;;;;1944408;74;21084;-79
2021/07/24 08:32:00;;;;;;;12.63;8.10;;;22.00;99.90;;;;;;1944651;74;21148;-79
2021/07/24 08:34:26;;;;;;;11.55;6.95;;;22.10;99.90;;;;;;1944583;74;21090;-77
2021/07/24 08:36:52;;;;;;;14.70;8.00;;;22.00;99.90;;;;;;1944542;74;21075;-77
2021/07/24 08:39:19;;;;;;;12.80;8.13;;;22.00;99.90;;;;;;1944491;74;21443;-77
2021/07/24 08:41:45;;;;;;;12.65;8.05;;;22.20;99.90;;;;;;1944417;74;21613;-77
2021/07/24 08:44:11;;;;;;;15.00;8.70;;;22.50;99.90;;;;;;1944382;74;21567;-77
2021/07/24 08:46:37;;;;;;;12.98;7.78;;;22.80;99.90;;;;;;1944611;74;21124;-78
2021/07/24 08:51:48;;;;;;;12.00;7.87;;;23.30;99.90;;;;;;1944585;74;21487;-78
2021/07/24 08:54:14;;;;;;;12.10;8.58;;;23.50;99.90;;;;;;1944420;74;21499;-78
2021/07/24 08:56:45;;;;;;;15.08;8.20;;;23.30;99.90;;;;;;1944578;74;21451;-79
2021/07/24 08:59:08;;;;;;;12.58;8.25;;;23.50;99.90;;;;;;1942931;74;21239;-78
2021/07/24 09:01:35;;;;;;;16.10;7.45;;;23.90;99.90;;;;;;1944553;74;21498;-79
2021/07/24 09:04:01;;;;;;;15.75;8.23;;;24.60;99.90;;;;;;1944418;73;21107;-78
2021/07/24 09:06:28;;;;;;;12.07;7.10;;;24.70;99.90;;;;;;1944609;74;21144;-79
2021/07/24 09:08:54;;;;;;;10.95;7.37;;;24.50;99.90;;;;;;1944432;74;21101;-78
2021/07/24 09:11:20;;;;;;;9.73;7.53;;;24.40;99.90;;;;;;1944588;74;21074;-79
2021/07/24 09:13:46;;;;;;;11.43;7.65;;;24.50;99.90;;;;;;1944410;74;21150;-78
2021/07/24 09:16:12;;;;;;;14.73;8.08;;;24.50;99.90;;;;;;1944586;74;21063;-79
2021/07/24 09:18:39;;;;;;;15.60;7.90;;;24.70;99.90;;;;;;1944303;74;21088;-78
2021/07/24 09:21:06;;;;;;;11.22;7.95;;;24.80;99.90;;;;;;1944546;74;21108;-78
2021/07/24 09:23:33;;;;;;;16.93;7.97;;;25.10;99.90;;;;;;1944435;73;21031;-78
2021/07/24 09:26:00;;;;;;;11.73;7.85;;;25.20;99.90;;;;;;1944462;74;21467;-78
2021/07/24 09:28:26;;;;;;;13.25;7.25;;;25.50;99.90;;;;;;1944423;74;21110;-78
2021/07/24 09:30:52;;;;;;;9.73;7.95;;;25.90;99.90;;;;;;1944531;72;21071;-78
2021/07/24 09:33:20;;;;;;;18.85;7.12;;;26.50;99.90;;;;;;1944595;74;21075;-78
2021/07/24 09:35:46;;;;;;;18.23;6.92;;;26.70;99.90;;;;;;1944413;74;21586;-78
2021/07/24 09:38:12;;;;;;;12.05;7.35;;;26.40;99.90;;;;;;1944443;74;21560;-78
2021/07/24 09:40:38;;;;;;;19.27;7.72;;;26.10;99.90;;;;;;1944438;74;21491;-77
2021/07/24 09:43:04;;;;;;;13.40;7.10;;;26.00;99.90;;;;;;1944467;72;21102;-78
2021/07/24 09:45:30;;;;;;;12.85;7.37;;;26.00;99.90;;;;;;1944464;74;21028;-78
2021/07/24 09:47:56;;;;;;;11.55;6.72;;;26.10;99.90;;;;;;1971032;72;21114;-78
2021/07/24 09:50:23;;;;;;;8.50;6.33;;;26.00;99.90;;;;;;1979331;72;21129;-78
2021/07/24 09:52:49;;;;;;;10.25;7.12;;;26.70;99.90;;;;;;1974200;72;21114;-79
2021/07/24 09:55:15;;;;;;;13.13;7.22;;;27.60;99.90;;;;;;1974810;71;21032;-79
2021/07/24 09:57:43;;;;;;;14.20;7.17;;;28.20;99.90;;;;;;1977691;72;21197;-78
2021/07/24 10:00:09;;;;;;;10.95;7.45;;;28.80;99.90;;;;;;1979235;72;21055;-78
2021/07/24 10:02:36;;;;;;;15.60;7.40;;;28.50;99.90;;;;;;1979260;72;21055;-78
2021/07/24 10:05:03;;;;;;;11.22;6.78;;;27.90;99.90;;;;;;1979257;72;21036;-78
2021/07/24 10:07:29;;;;;;;11.78;7.25;;;28.60;99.90;;;;;;1979033;71;21085;-78
2021/07/24 10:09:55;;;;;;;11.97;7.22;;;28.20;99.90;;;;;;1979201;72;21153;-77
2021/07/24 10:12:21;;;;;;;10.95;6.92;;;27.80;99.90;;;;;;1979122;72;21153;-78
2021/07/24 10:14:47;;;;;;;21.73;7.85;;;27.60;99.90;;;;;;1979209;72;21072;-78
2021/07/24 10:17:13;;;;;;;14.43;7.20;;;27.60;99.90;;;;;;1979050;72;21080;-78
2021/07/24 10:19:39;;;;;;;13.03;7.60;;;27.70;99.90;;;;;;1979143;72;21080;-80
2021/07/24 10:22:05;;;;;;;13.65;7.20;;;27.50;99.90;;;;;;1979268;71;21084;-80
2021/07/24 10:24:32;;;;;;;12.80;7.40;;;27.50;99.90;;;;;;1979457;72;21055;-78
2021/07/24 10:26:58;;;;;;;19.65;7.80;;;27.70;99.90;;;;;;1979024;71;21167;-78
2021/07/24 10:29:24;;;;;;;17.77;7.55;;;27.90;99.90;;;;;;1979209;71;21479;-73
2021/07/24 10:31:52;;;;;;;14.53;7.75;;;28.20;99.90;;;;;;1979010;72;21540;-73
2021/07/24 10:34:18;;;;;;;10.88;7.17;;;28.30;99.90;;;;;;1979203;72;21032;-73
2021/07/24 10:36:44;;;;;;;13.30;7.55;;;28.40;99.90;;;;;;1979141;72;21099;-74
2021/07/24 10:39:11;;;;;;;14.00;7.35;;;28.10;99.90;;;;;;1979233;72;21070;-74
2021/07/24 10:41:37;;;;;;;17.10;7.05;;;28.20;99.90;;;;;;1979111;71;21247;-74
2021/07/24 10:44:03;;;;;;;18.40;7.08;;;28.80;99.90;;;;;;1981964;72;21119;-72
2021/07/24 10:46:29;;;;;;;17.40;7.20;;;28.60;99.90;;;;;;1982991;71;21028;-75
2021/07/24 10:48:55;;;;;;;11.12;6.45;;;28.30;99.90;;;;;;1981385;71;21048;-74
2021/07/24 10:51:21;;;;;;;16.52;6.97;;;28.20;99.90;;;;;;1979509;72;21027;-74
2021/07/24 10:53:48;;;;;;;11.53;6.85;;;28.40;99.90;;;;;;1979110;71;21088;-74
2021/07/24 10:56:14;;;;;;;9.75;7.15;;;28.00;99.90;;;;;;1979276;72;21121;-73
2021/07/24 10:58:40;;;;;;;9.85;6.65;;;28.00;99.90;;;;;;1979130;71;21161;-74
2021/07/24 11:01:07;;;;;;;13.35;6.97;;;28.10;99.90;;;;;;1979315;72;21055;-75
2021/07/24 11:03:34;;;;;;;9.03;6.90;;;28.20;99.90;;;;;;1979247;72;21522;-75
2021/07/24 11:06:00;;;;;;;13.30;6.62;;;28.50;99.90;;;;;;1979065;72;21543;-75
2021/07/24 11:08:26;;;;;;;19.17;6.75;;;29.10;99.90;;;;;;1979248;71;21479;-75
2021/07/24 11:10:52;;;;;;;13.60;6.83;;;29.30;99.90;;;;;;1979102;72;21087;-74
2021/07/24 11:13:18;;;;;;;14.33;7.42;;;29.60;99.90;;;;;;1979316;72;21055;-74
2021/07/24 11:15:44;;;;;;;8.93;6.85;;;29.50;99.90;;;;;;1979076;72;21161;-73
2021/07/24 11:18:10;;;;;;;12.82;7.70;;;30.10;99.90;;;;;;1979231;72;21028;-73
2021/07/24 11:20:36;;;;;;;10.30;6.30;;;29.90;99.90;;;;;;1978832;72;21092;-72
2021/07/24 11:23:07;;;;;;;12.98;6.33;;;29.90;99.90;;;;;;1978581;72;21105;-73
2021/07/24 11:25:30;;;;;;;8.93;5.45;;;30.30;99.90;;;;;;1976999;72;21557;-73
2021/07/24 11:27:56;;;;;;;8.93;6.37;;;29.90;99.90;;;;;;1978584;72;21488;-73
2021/07/24 11:30:25;;;;;;;9.65;5.97;;;29.50;99.90;;;;;;1978584;71;21455;-74
2021/07/24 11:32:50;;;;;;;9.85;5.17;;;29.00;99.90;;;;;;1978236;72;21157;-73
2021/07/24 11:35:16;;;;;;;9.40;5.05;;;28.70;99.90;;;;;;1978603;72;21059;-73
2021/07/24 11:37:43;;;;;;;7.17;5.10;;;28.40;99.90;;;;;;1978717;71;21047;-74
2021/07/24 11:40:09;;;;;;;10.43;5.30;;;28.20;99.90;;;;;;1978473;72;21124;-74
2021/07/24 11:42:35;;;;;;;10.15;4.90;;;27.70;99.90;;;;;;1978618;72;21204;-75
2021/07/24 11:45:01;;;;;;;13.35;5.75;;;27.70;99.90;;;;;;1978559;71;21020;-74
2021/07/24 11:47:27;;;;;;;7.15;4.95;;;27.40;99.90;;;;;;1978530;72;21047;-73
2021/07/24 11:49:54;;;;;;;19.65;5.60;;;27.40;99.90;;;;;;1978514;72;21038;-73
2021/07/24 11:52:20;;;;;;;7.95;4.67;;;27.40;99.90;;;;;;1978630;72;21047;-73
2021/07/24 11:54:47;;;;;;;11.05;5.35;;;27.30;99.90;;;;;;1978633;72;21105;-74
2021/07/24 11:57:13;;;;;;;11.30;5.53;;;27.30;99.90;;;;;;1978646;72;21051;-73
2021/07/24 11:59:39;;;;;;;8.58;4.58;;;27.40;99.90;;;;;;1978732;72;21039;-73
2021/07/24 12:02:05;;;;;;;8.28;4.72;;;27.70;99.90;;;;;;1978732;72;21055;-73
2021/07/24 12:04:31;;;;;;;9.90;4.40;;;28.20;99.90;;;;;;1978699;72;21125;-73
2021/07/24 12:06:57;;;;;;;6.83;3.83;;;28.80;99.90;;;;;;1978702;72;21121;-73
2021/07/24 12:09:23;;;;;;;17.07;4.75;;;29.10;99.90;;;;;;1978630;72;21089;-74
2021/07/24 12:11:49;;;;;;;9.68;4.42;;;29.40;99.90;;;;;;1978675;72;21066;-74
2021/07/24 12:14:16;;;;;;;12.58;4.35;;;29.50;99.90;;;;;;1978854;72;21043;-78
2021/07/24 12:16:42;;;;;;;6.80;4.15;;;29.50;99.90;;;;;;1978754;71;21120;-74
2021/07/24 12:19:08;;;;;;;15.08;4.40;;;29.00;99.90;;;;;;1978604;71;21172;-73
2021/07/24 12:21:34;;;;;;;8.73;3.80;;;29.30;99.90;;;;;;1978765;72;21093;-76
2021/07/24 12:24:00;;;;;;;11.88;4.00;;;29.60;99.90;;;;;;1978841;72;21043;-74
2021/07/24 12:26:31;;;;;;;10.80;4.17;;;29.70;99.90;;;;;;1978736;71;21141;-74
2021/07/24 12:28:57;;;;;;;7.12;4.08;;;30.40;99.90;;;;;;1978511;71;21080;-74
2021/07/24 12:31:23;;;;;;;7.30;4.12;;;30.90;99.90;;;;;;1978503;72;21098;-73
2021/07/24 12:33:50;;;;;;;8.20;4.12;;;31.10;99.90;;;;;;1978757;72;21024;-73
2021/07/24 12:36:16;;;;;;;6.58;3.90;;;30.50;99.90;;;;;;1978792;72;21059;-74
2021/07/24 12:38:42;;;;;;;5.80;3.50;;;30.20;99.90;;;;;;1978832;72;21047;-74